sensor_id;sensor_type;location;lat;lon;timestamp;pressure;altitude;pressure_sealevel;temperature
58102;BMP280;52034;51.926;6.320;2023-09-07T00:00:37;102007.78;;;20.94
58102;BMP280;52034;51.926;6.320;2023-09-07T00:01:38;102006.31;;;20.91
58102;BMP280;52034;51.926;6.320;2023-09-07T00:02:38;102013.44;;;20.90
58102;BMP280;52034;51.926;6.320;2023-09-07T00:03:39;102014.13;;;20.89
58102;BMP280;52034;51.926;6.320;2023-09-07T00:04:40;102004.78;;;20.84
58102;BMP280;52034;51.926;6.320;2023-09-07T00:05:42;102013.34;;;20.84
58102;BMP280;52034;51.926;6.320;2023-09-07T00:06:42;102006.91;;;20.80
58102;BMP280;52034;51.926;6.320;2023-09-07T00:07:43;102011.16;;;20.79
58102;BMP280;52034;51.926;6.320;2023-09-07T00:08:44;102011.84;;;20.77
58102;BMP280;52034;51.926;6.320;2023-09-07T00:09:45;102008.22;;;20.73
58102;BMP280;52034;51.926;6.320;2023-09-07T00:10:45;102003.81;;;20.64
58102;BMP280;52034;51.926;6.320;2023-09-07T00:11:46;102010.91;;;20.61
58102;BMP280;52034;51.926;6.320;2023-09-07T00:12:46;102009.50;;;20.62
58102;BMP280;52034;51.926;6.320;2023-09-07T00:13:46;102000.19;;;20.57
58102;BMP280;52034;51.926;6.320;2023-09-07T00:14:47;102013.72;;;20.55
58102;BMP280;52034;51.926;6.320;2023-09-07T00:15:47;102003.75;;;20.58
58102;BMP280;52034;51.926;6.320;2023-09-07T00:16:47;102010.88;;;20.57
58102;BMP280;52034;51.926;6.320;2023-09-07T00:17:47;102011.53;;;20.51
58102;BMP280;52034;51.926;6.320;2023-09-07T00:18:48;101998.63;;;20.46
58102;BMP280;52034;51.926;6.320;2023-09-07T00:19:49;102002.19;;;20.49
58102;BMP280;52034;51.926;6.320;2023-09-07T00:20:51;102006.47;;;20.46
58102;BMP280;52034;51.926;6.320;2023-09-07T00:21:51;102004.34;;;20.48
58102;BMP280;52034;51.926;6.320;2023-09-07T00:22:52;102005.00;;;20.45
58102;BMP280;52034;51.926;6.320;2023-09-07T00:23:52;102000.69;;;20.42
58102;BMP280;52034;51.926;6.320;2023-09-07T00:24:52;101994.19;;;20.37
58102;BMP280;52034;51.926;6.320;2023-09-07T00:25:53;102001.38;;;20.38
58102;BMP280;52034;51.926;6.320;2023-09-07T00:26:53;102003.50;;;20.38
58102;BMP280;52034;51.926;6.320;2023-09-07T00:27:53;102004.91;;;20.37
58102;BMP280;52034;51.926;6.320;2023-09-07T00:28:53;102003.44;;;20.34
58102;BMP280;52034;51.926;6.320;2023-09-07T00:29:54;102009.81;;;20.32
58102;BMP280;52034;51.926;6.320;2023-09-07T00:30:54;102003.44;;;20.34
58102;BMP280;52034;51.926;6.320;2023-09-07T00:31:54;102004.84;;;20.33
58102;BMP280;52034;51.926;6.320;2023-09-07T00:32:55;102008.38;;;20.29
58102;BMP280;52034;51.926;6.320;2023-09-07T00:33:55;102015.53;;;20.32
58102;BMP280;52034;51.926;6.320;2023-09-07T00:34:55;102010.38;;;20.23
58102;BMP280;52034;51.926;6.320;2023-09-07T00:35:55;102016.94;;;20.29
58102;BMP280;52034;51.926;6.320;2023-09-07T00:36:56;102011.13;;;20.21
58102;BMP280;52034;51.926;6.320;2023-09-07T00:37:57;102011.06;;;20.19
58102;BMP280;52034;51.926;6.320;2023-09-07T00:38:57;101998.13;;;20.14
58102;BMP280;52034;51.926;6.320;2023-09-07T00:39:57;102007.41;;;20.13
58102;BMP280;52034;51.926;6.320;2023-09-07T00:40:58;102005.31;;;20.15
58102;BMP280;52034;51.926;6.320;2023-09-07T00:41:58;102014.53;;;20.10
58102;BMP280;52034;51.926;6.320;2023-09-07T00:42:59;102007.25;;;20.01
58102;BMP280;52034;51.926;6.320;2023-09-07T00:43:59;102003.03;;;20.06
58102;BMP280;52034;51.926;6.320;2023-09-07T00:44:59;102005.78;;;20.00
58102;BMP280;52034;51.926;6.320;2023-09-07T00:46:00;101996.50;;;19.98
58102;BMP280;52034;51.926;6.320;2023-09-07T00:47:01;101996.31;;;19.88
58102;BMP280;52034;51.926;6.320;2023-09-07T00:48:01;102005.56;;;19.84
58102;BMP280;52034;51.926;6.320;2023-09-07T00:49:02;101999.78;;;19.82
58102;BMP280;52034;51.926;6.320;2023-09-07T00:50:05;102001.22;;;19.81
58102;BMP280;52034;51.926;6.320;2023-09-07T00:51:07;101992.66;;;19.81
58102;BMP280;52034;51.926;6.320;2023-09-07T00:52:08;102002.03;;;19.88
58102;BMP280;52034;51.926;6.320;2023-09-07T00:53:13;101998.53;;;19.91
58102;BMP280;52034;51.926;6.320;2023-09-07T00:54:14;101994.09;;;19.82
58102;BMP280;52034;51.926;6.320;2023-09-07T00:55:14;101993.31;;;19.78
58102;BMP280;52034;51.926;6.320;2023-09-07T00:56:15;101995.41;;;19.75
58102;BMP280;52034;51.926;6.320;2023-09-07T00:57:16;101987.56;;;19.74
58102;BMP280;52034;51.926;6.320;2023-09-07T00:58:16;101988.25;;;19.72
58102;BMP280;52034;51.926;6.320;2023-09-07T00:59:16;101999.66;;;19.74
58102;BMP280;52034;51.926;6.320;2023-09-07T01:00:17;101993.22;;;19.72
58102;BMP280;52034;51.926;6.320;2023-09-07T01:01:17;101996.16;;;19.78
58102;BMP280;52034;51.926;6.320;2023-09-07T01:02:18;101996.81;;;19.72
58102;BMP280;52034;51.926;6.320;2023-09-07T01:03:18;101987.56;;;19.76
58102;BMP280;52034;51.926;6.320;2023-09-07T01:04:18;101989.00;;;19.73
58102;BMP280;52034;51.926;6.320;2023-09-07T01:05:21;101991.84;;;19.73
58102;BMP280;52034;51.926;6.320;2023-09-07T01:06:30;101996.00;;;19.68
58102;BMP280;52034;51.926;6.320;2023-09-07T01:07:40;101996.75;;;19.70
58102;BMP280;52034;51.926;6.320;2023-09-07T01:08:46;101995.28;;;19.67
58102;BMP280;52034;51.926;6.320;2023-09-07T01:09:52;101993.91;;;19.70
58102;BMP280;52034;51.926;6.320;2023-09-07T01:10:54;101993.91;;;19.68
58102;BMP280;52034;51.926;6.320;2023-09-07T01:11:55;101987.41;;;19.64
58102;BMP280;52034;51.926;6.320;2023-09-07T01:12:55;101996.00;;;19.68
58102;BMP280;52034;51.926;6.320;2023-09-07T01:13:55;101988.19;;;19.70
58102;BMP280;52034;51.926;6.320;2023-09-07T01:14:56;101988.19;;;19.70
58102;BMP280;52034;51.926;6.320;2023-09-07T01:15:58;101986.03;;;19.69
58102;BMP280;52034;51.926;6.320;2023-09-07T01:16:59;101986.06;;;19.71
58102;BMP280;52034;51.926;6.320;2023-09-07T01:18:00;101992.50;;;19.71
58102;BMP280;52034;51.926;6.320;2023-09-07T01:19:01;101985.34;;;19.70
58102;BMP280;52034;51.926;6.320;2023-09-07T01:20:05;101989.00;;;19.73
58102;BMP280;52034;51.926;6.320;2023-09-07T01:21:11;101985.25;;;19.64
58102;BMP280;52034;51.926;6.320;2023-09-07T01:22:13;101983.75;;;19.61
58102;BMP280;52034;51.926;6.320;2023-09-07T01:23:14;101984.56;;;19.66
58102;BMP280;52034;51.926;6.320;2023-09-07T01:24:15;101990.25;;;19.66
58102;BMP280;52034;51.926;6.320;2023-09-07T01:25:16;101987.41;;;19.66
58102;BMP280;52034;51.926;6.320;2023-09-07T01:26:16;101988.13;;;19.66
58102;BMP280;52034;51.926;6.320;2023-09-07T01:27:17;101986.72;;;19.67
58102;BMP280;52034;51.926;6.320;2023-09-07T01:28:18;101988.19;;;19.68
58102;BMP280;52034;51.926;6.320;2023-09-07T01:29:18;101995.31;;;19.69
58102;BMP280;52034;51.926;6.320;2023-09-07T01:30:18;101993.91;;;19.68
58102;BMP280;52034;51.926;6.320;2023-09-07T01:31:19;101981.00;;;19.65
58102;BMP280;52034;51.926;6.320;2023-09-07T01:32:20;101988.88;;;19.69
58102;BMP280;52034;51.926;6.320;2023-09-07T01:33:21;101982.44;;;19.66
58102;BMP280;52034;51.926;6.320;2023-09-07T01:34:21;101983.84;;;19.65
58102;BMP280;52034;51.926;6.320;2023-09-07T01:35:22;101980.31;;;19.67
58102;BMP280;52034;51.926;6.320;2023-09-07T01:36:23;101986.03;;;19.67
58102;BMP280;52034;51.926;6.320;2023-09-07T01:37:24;101986.75;;;19.69
58102;BMP280;52034;51.926;6.320;2023-09-07T01:38:24;101989.56;;;19.67
58102;BMP280;52034;51.926;6.320;2023-09-07T01:39:24;101982.44;;;19.66
58102;BMP280;52034;51.926;6.320;2023-09-07T01:40:26;101981.00;;;19.65
58102;BMP280;52034;51.926;6.320;2023-09-07T01:41:26;101975.09;;;19.53
58102;BMP280;52034;51.926;6.320;2023-09-07T01:42:27;101978.75;;;19.58
58102;BMP280;52034;51.926;6.320;2023-09-07T01:43:27;101978.00;;;19.55
58102;BMP280;52034;51.926;6.320;2023-09-07T01:44:28;101976.53;;;19.54
58102;BMP280;52034;51.926;6.320;2023-09-07T01:45:29;101975.72;;;19.48
58102;BMP280;52034;51.926;6.320;2023-09-07T01:46:30;101971.31;;;19.41
58102;BMP280;52034;51.926;6.320;2023-09-07T01:47:30;101975.63;;;19.42
58102;BMP280;52034;51.926;6.320;2023-09-07T01:48:30;101979.88;;;19.41
58102;BMP280;52034;51.926;6.320;2023-09-07T01:49:30;101984.09;;;19.40
58102;BMP280;52034;51.926;6.320;2023-09-07T01:50:31;101974.81;;;19.37
58102;BMP280;52034;51.926;6.320;2023-09-07T01:51:31;101976.41;;;19.46
58102;BMP280;52034;51.926;6.320;2023-09-07T01:52:32;101982.06;;;19.44
58102;BMP280;52034;51.926;6.320;2023-09-07T01:53:32;101975.56;;;19.40
58102;BMP280;52034;51.926;6.320;2023-09-07T01:54:32;101974.88;;;19.41
58102;BMP280;52034;51.926;6.320;2023-09-07T01:55:33;101974.19;;;19.41
58102;BMP280;52034;51.926;6.320;2023-09-07T01:56:34;101972.00;;;19.39
58102;BMP280;52034;51.926;6.320;2023-09-07T01:57:34;101970.56;;;19.38
58102;BMP280;52034;51.926;6.320;2023-09-07T01:58:34;101973.38;;;19.36
58102;BMP280;52034;51.926;6.320;2023-09-07T01:59:35;101976.97;;;19.39
58102;BMP280;52034;51.926;6.320;2023-09-07T02:00:38;101969.78;;;19.34
58102;BMP280;52034;51.926;6.320;2023-09-07T02:01:41;101977.66;;;19.37
58102;BMP280;52034;51.926;6.320;2023-09-07T02:02:41;101973.41;;;19.38
58102;BMP280;52034;51.926;6.320;2023-09-07T02:03:41;101974.75;;;19.33
58102;BMP280;52034;51.926;6.320;2023-09-07T02:04:42;101969.00;;;19.29
58102;BMP280;52034;51.926;6.320;2023-09-07T02:05:45;101978.91;;;19.28
58102;BMP280;52034;51.926;6.320;2023-09-07T02:06:46;101979.59;;;19.25
58102;BMP280;52034;51.926;6.320;2023-09-07T02:07:46;101973.84;;;19.23
58102;BMP280;52034;51.926;6.320;2023-09-07T02:08:49;101977.34;;;19.21
58102;BMP280;52034;51.926;6.320;2023-09-07T02:09:49;101977.41;;;19.23
58102;BMP280;52034;51.926;6.320;2023-09-07T02:10:50;101972.38;;;19.20
58102;BMP280;52034;51.926;6.320;2023-09-07T02:11:50;101970.19;;;19.18
58102;BMP280;52034;51.926;6.320;2023-09-07T02:12:51;101973.75;;;19.17
58102;BMP280;52034;51.926;6.320;2023-09-07T02:13:52;101973.78;;;19.19
58102;BMP280;52034;51.926;6.320;2023-09-07T02:14:52;101966.66;;;19.20
58102;BMP280;52034;51.926;6.320;2023-09-07T02:15:52;101968.13;;;19.21
58102;BMP280;52034;51.926;6.320;2023-09-07T02:16:53;101965.97;;;19.19
58102;BMP280;52034;51.926;6.320;2023-09-07T02:17:53;101974.44;;;19.17
58102;BMP280;52034;51.926;6.320;2023-09-07T02:19:03;101968.06;;;19.19
58102;BMP280;52034;51.926;6.320;2023-09-07T02:20:04;101977.34;;;19.19
58102;BMP280;52034;51.926;6.320;2023-09-07T02:21:10;101971.66;;;19.19
58102;BMP280;52034;51.926;6.320;2023-09-07T02:22:11;101975.22;;;19.20
58102;BMP280;52034;51.926;6.320;2023-09-07T02:23:12;101977.34;;;19.21
58102;BMP280;52034;51.926;6.320;2023-09-07T02:24:12;101973.84;;;19.21
58102;BMP280;52034;51.926;6.320;2023-09-07T02:25:12;101977.41;;;19.23
58102;BMP280;52034;51.926;6.320;2023-09-07T02:26:13;101982.44;;;19.25
58102;BMP280;52034;51.926;6.320;2023-09-07T02:27:13;101979.59;;;19.25
58102;BMP280;52034;51.926;6.320;2023-09-07T02:28:13;101970.28;;;19.22
58102;BMP280;52034;51.926;6.320;2023-09-07T02:29:14;101964.59;;;19.22
58102;BMP280;52034;51.926;6.320;2023-09-07T02:30:14;101969.66;;;19.28
58102;BMP280;52034;51.926;6.320;2023-09-07T02:31:14;101967.53;;;19.28
58102;BMP280;52034;51.926;6.320;2023-09-07T02:32:15;101968.19;;;19.27
58102;BMP280;52034;51.926;6.320;2023-09-07T02:33:15;101968.19;;;19.27
58102;BMP280;52034;51.926;6.320;2023-09-07T02:34:16;101965.41;;;19.29
58102;BMP280;52034;51.926;6.320;2023-09-07T02:35:16;101966.16;;;19.29
58102;BMP280;52034;51.926;6.320;2023-09-07T02:36:16;101953.97;;;19.25
58102;BMP280;52034;51.926;6.320;2023-09-07T02:37:17;101963.22;;;19.25
58102;BMP280;52034;51.926;6.320;2023-09-07T02:38:17;101953.22;;;19.24
58102;BMP280;52034;51.926;6.320;2023-09-07T02:39:17;101953.16;;;19.20
58102;BMP280;52034;51.926;6.320;2023-09-07T02:40:18;101956.63;;;19.15
58102;BMP280;52034;51.926;6.320;2023-09-07T02:41:18;101955.81;;;19.10
58102;BMP280;52034;51.926;6.320;2023-09-07T02:42:19;101949.31;;;19.06
58102;BMP280;52034;51.926;6.320;2023-09-07T02:43:19;101952.81;;;19.02
58102;BMP280;52034;51.926;6.320;2023-09-07T02:44:19;101946.34;;;18.98
58102;BMP280;52034;51.926;6.320;2023-09-07T02:45:21;101943.44;;;18.96
58102;BMP280;52034;51.926;6.320;2023-09-07T02:46:21;101944.81;;;18.93
58102;BMP280;52034;51.926;6.320;2023-09-07T02:47:21;101947.72;;;18.95
58102;BMP280;52034;51.926;6.320;2023-09-07T02:48:22;101949.72;;;18.90
58102;BMP280;52034;51.926;6.320;2023-09-07T02:49:22;101944.00;;;18.88
58102;BMP280;52034;51.926;6.320;2023-09-07T02:50:22;101946.78;;;18.86
58102;BMP280;52034;51.926;6.320;2023-09-07T02:51:23;101947.59;;;18.89
58102;BMP280;52034;51.926;6.320;2023-09-07T02:52:24;101944.00;;;18.88
58102;BMP280;52034;51.926;6.320;2023-09-07T02:53:25;101946.78;;;18.86
58102;BMP280;52034;51.926;6.320;2023-09-07T02:54:26;101946.78;;;18.86
58102;BMP280;52034;51.926;6.320;2023-09-07T02:55:27;101945.38;;;18.85
58102;BMP280;52034;51.926;6.320;2023-09-07T02:56:27;101946.00;;;18.82
58102;BMP280;52034;51.926;6.320;2023-09-07T02:57:27;101952.47;;;18.84
58102;BMP280;52034;51.926;6.320;2023-09-07T02:58:28;101939.56;;;18.79
58102;BMP280;52034;51.926;6.320;2023-09-07T02:59:28;101949.56;;;18.80
58102;BMP280;52034;51.926;6.320;2023-09-07T03:00:30;101956.69;;;18.81
58102;BMP280;52034;51.926;6.320;2023-09-07T03:01:30;101948.75;;;18.78
58102;BMP280;52034;51.926;6.320;2023-09-07T03:02:31;101953.84;;;18.81
58102;BMP280;52034;51.926;6.320;2023-09-07T03:03:31;101954.59;;;18.84
58102;BMP280;52034;51.926;6.320;2023-09-07T03:04:31;101955.31;;;18.84
58102;BMP280;52034;51.926;6.320;2023-09-07T03:05:32;101951.81;;;18.86
58102;BMP280;52034;51.926;6.320;2023-09-07T03:06:32;101952.53;;;18.88
58102;BMP280;52034;51.926;6.320;2023-09-07T03:07:33;101951.81;;;18.88
58102;BMP280;52034;51.926;6.320;2023-09-07T03:08:33;101948.97;;;18.88
58102;BMP280;52034;51.926;6.320;2023-09-07T03:09:34;101954.72;;;18.90
58102;BMP280;52034;51.926;6.320;2023-09-07T03:10:35;101954.66;;;18.88
58102;BMP280;52034;51.926;6.320;2023-09-07T03:11:37;101949.56;;;18.80
58102;BMP280;52034;51.926;6.320;2023-09-07T03:12:38;101955.25;;;18.80
58102;BMP280;52034;51.926;6.320;2023-09-07T03:13:38;101951.53;;;18.72
58102;BMP280;52034;51.926;6.320;2023-09-07T03:14:43;101949.34;;;18.70
58102;BMP280;52034;51.926;6.320;2023-09-07T03:15:43;101939.91;;;18.62
58102;BMP280;52034;51.926;6.320;2023-09-07T03:16:46;101948.44;;;18.62
58102;BMP280;52034;51.926;6.320;2023-09-07T03:17:50;101948.44;;;18.62
58102;BMP280;52034;51.926;6.320;2023-09-07T03:18:51;101940.38;;;18.50
58102;BMP280;52034;51.926;6.320;2023-09-07T03:19:51;101948.88;;;18.48
58102;BMP280;52034;51.926;6.320;2023-09-07T03:20:53;101951.72;;;18.48
58102;BMP280;52034;51.926;6.320;2023-09-07T03:21:54;101947.34;;;18.43
58102;BMP280;52034;51.926;6.320;2023-09-07T03:22:55;101955.16;;;18.43
58102;BMP280;52034;51.926;6.320;2023-09-07T03:23:57;101954.41;;;18.40
58102;BMP280;52034;51.926;6.320;2023-09-07T03:24:57;101945.97;;;18.44
58102;BMP280;52034;51.926;6.320;2023-09-07T03:25:58;101955.22;;;18.45
58102;BMP280;52034;51.926;6.320;2023-09-07T03:26:59;101955.84;;;18.41
58102;BMP280;52034;51.926;6.320;2023-09-07T03:28:00;101953.81;;;18.46
58102;BMP280;52034;51.926;6.320;2023-09-07T03:29:00;101948.81;;;18.44
58102;BMP280;52034;51.926;6.320;2023-09-07T03:30:01;101945.22;;;18.44
58102;BMP280;52034;51.926;6.320;2023-09-07T03:31:01;101948.75;;;18.42
58102;BMP280;52034;51.926;6.320;2023-09-07T03:32:02;101955.97;;;18.47
58102;BMP280;52034;51.926;6.320;2023-09-07T03:33:03;101953.00;;;18.41
58102;BMP280;52034;51.926;6.320;2023-09-07T03:34:03;101946.59;;;18.41
58102;BMP280;52034;51.926;6.320;2023-09-07T03:35:05;101953.75;;;18.44
58102;BMP280;52034;51.926;6.320;2023-09-07T03:36:09;101953.84;;;18.48
58102;BMP280;52034;51.926;6.320;2023-09-07T03:37:14;101949.53;;;18.45
58102;BMP280;52034;51.926;6.320;2023-09-07T03:38:14;101950.97;;;18.46
58102;BMP280;52034;51.926;6.320;2023-09-07T03:39:14;101943.13;;;18.46
58102;BMP280;52034;51.926;6.320;2023-09-07T03:40:15;101940.84;;;18.39
58102;BMP280;52034;51.926;6.320;2023-09-07T03:41:15;101950.19;;;18.43
58102;BMP280;52034;51.926;6.320;2023-09-07T03:42:16;101944.50;;;18.43
58102;BMP280;52034;51.926;6.320;2023-09-07T03:43:17;101949.44;;;18.41
58102;BMP280;52034;51.926;6.320;2023-09-07T03:44:17;101952.31;;;18.43
58102;BMP280;52034;51.926;6.320;2023-09-07T03:45:18;101955.13;;;18.41
58102;BMP280;52034;51.926;6.320;2023-09-07T03:46:18;101952.22;;;18.39
58102;BMP280;52034;51.926;6.320;2023-09-07T03:47:18;101950.03;;;18.37
58102;BMP280;52034;51.926;6.320;2023-09-07T03:48:19;101945.81;;;18.38
58102;BMP280;52034;51.926;6.320;2023-09-07T03:49:19;101949.44;;;18.41
58102;BMP280;52034;51.926;6.320;2023-09-07T03:50:20;101946.53;;;18.39
58102;BMP280;52034;51.926;6.320;2023-09-07T03:51:20;101953.63;;;18.38
58102;BMP280;52034;51.926;6.320;2023-09-07T03:52:21;101940.75;;;18.35
58102;BMP280;52034;51.926;6.320;2023-09-07T03:53:24;101943.63;;;18.35
58102;BMP280;52034;51.926;6.320;2023-09-07T03:54:25;101949.97;;;18.33
58102;BMP280;52034;51.926;6.320;2023-09-07T03:55:25;101947.19;;;18.35
58102;BMP280;52034;51.926;6.320;2023-09-07T03:56:26;101948.59;;;18.34
58102;BMP280;52034;51.926;6.320;2023-09-07T03:57:26;101951.47;;;18.36
58102;BMP280;52034;51.926;6.320;2023-09-07T03:58:27;101942.16;;;18.34
58102;BMP280;52034;51.926;6.320;2023-09-07T03:59:27;101941.34;;;18.29
58102;BMP280;52034;51.926;6.320;2023-09-07T04:00:29;101942.94;;;18.36
58102;BMP280;52034;51.926;6.320;2023-09-07T04:01:31;101943.66;;;18.37
58102;BMP280;52034;51.926;6.320;2023-09-07T04:02:31;101945.06;;;18.36
58102;BMP280;52034;51.926;6.320;2023-09-07T04:03:31;101941.50;;;18.35
58102;BMP280;52034;51.926;6.320;2023-09-07T04:04:32;101945.78;;;18.36
58102;BMP280;52034;51.926;6.320;2023-09-07T04:05:33;101940.06;;;18.34
58102;BMP280;52034;51.926;6.320;2023-09-07T04:06:36;101934.28;;;18.30
58102;BMP280;52034;51.926;6.320;2023-09-07T04:07:37;101942.22;;;18.36
58102;BMP280;52034;51.926;6.320;2023-09-07T04:08:38;101940.06;;;18.34
58102;BMP280;52034;51.926;6.320;2023-09-07T04:09:38;101937.09;;;18.30
58102;BMP280;52034;51.926;6.320;2023-09-07T04:10:38;101948.59;;;18.34
58102;BMP280;52034;51.926;6.320;2023-09-07T04:11:39;101941.44;;;18.33
58102;BMP280;52034;51.926;6.320;2023-09-07T04:12:40;101948.63;;;18.36
58102;BMP280;52034;51.926;6.320;2023-09-07T04:13:41;101951.44;;;18.34
58102;BMP280;52034;51.926;6.320;2023-09-07T04:14:41;101940.69;;;18.31
58102;BMP280;52034;51.926;6.320;2023-09-07T04:15:46;101948.53;;;18.32
58102;BMP280;52034;51.926;6.320;2023-09-07T04:16:47;101944.88;;;18.28
58102;BMP280;52034;51.926;6.320;2023-09-07T04:17:50;101952.81;;;18.33
58102;BMP280;52034;51.926;6.320;2023-09-07T04:18:50;101947.91;;;18.36
58102;BMP280;52034;51.926;6.320;2023-09-07T04:19:50;101954.41;;;18.40
58102;BMP280;52034;51.926;6.320;2023-09-07T04:20:50;101960.03;;;18.38
58102;BMP280;52034;51.926;6.320;2023-09-07T04:21:51;101957.16;;;18.36
58102;BMP280;52034;51.926;6.320;2023-09-07T04:22:51;101955.66;;;18.33
58102;BMP280;52034;51.926;6.320;2023-09-07T04:23:52;101948.66;;;18.38
58102;BMP280;52034;51.926;6.320;2023-09-07T04:24:52;101946.53;;;18.39
58102;BMP280;52034;51.926;6.320;2023-09-07T04:25:53;101952.19;;;18.37
58102;BMP280;52034;51.926;6.320;2023-09-07T04:26:57;101949.97;;;18.33
58102;BMP280;52034;51.926;6.320;2023-09-07T04:27:58;101946.97;;;18.25
58102;BMP280;52034;51.926;6.320;2023-09-07T04:28:58;101952.66;;;18.25
58102;BMP280;52034;51.926;6.320;2023-09-07T04:29:59;101949.72;;;18.21
58102;BMP280;52034;51.926;6.320;2023-09-07T04:31:01;101952.41;;;18.15
58102;BMP280;52034;51.926;6.320;2023-09-07T04:32:01;101949.53;;;18.13
58102;BMP280;52034;51.926;6.320;2023-09-07T04:33:02;101947.06;;;18.00
58102;BMP280;52034;51.926;6.320;2023-09-07T04:34:03;101949.16;;;17.97
58102;BMP280;52034;51.926;6.320;2023-09-07T04:35:04;101945.59;;;17.97
58102;BMP280;52034;51.926;6.320;2023-09-07T04:36:12;101944.88;;;17.96
58102;BMP280;52034;51.926;6.320;2023-09-07T04:37:13;101946.25;;;17.95
58102;BMP280;52034;51.926;6.320;2023-09-07T04:38:14;101941.22;;;17.92
58102;BMP280;52034;51.926;6.320;2023-09-07T04:39:14;101941.94;;;17.92
58102;BMP280;52034;51.926;6.320;2023-09-07T04:40:15;101949.72;;;17.92
58102;BMP280;52034;51.926;6.320;2023-09-07T04:41:16;101945.44;;;17.91
58102;BMP280;52034;51.926;6.320;2023-09-07T04:42:16;101951.81;;;17.89
58102;BMP280;52034;51.926;6.320;2023-09-07T04:43:17;101946.06;;;17.87
58102;BMP280;52034;51.926;6.320;2023-09-07T04:44:17;101954.69;;;17.91
58102;BMP280;52034;51.926;6.320;2023-09-07T04:45:17;101951.09;;;17.89
58102;BMP280;52034;51.926;6.320;2023-09-07T04:46:21;101959.00;;;17.92
58102;BMP280;52034;51.926;6.320;2023-09-07T04:47:22;101949.16;;;17.97
58102;BMP280;52034;51.926;6.320;2023-09-07T04:48:22;101950.50;;;17.94
58102;BMP280;52034;51.926;6.320;2023-09-07T04:49:23;101947.72;;;17.96
58102;BMP280;52034;51.926;6.320;2023-09-07T04:50:24;101940.63;;;17.97
58102;BMP280;52034;51.926;6.320;2023-09-07T04:51:25;101945.66;;;17.99
58102;BMP280;52034;51.926;6.320;2023-09-07T04:52:26;101949.22;;;17.99
58102;BMP280;52034;51.926;6.320;2023-09-07T04:53:30;101942.09;;;18.00
58102;BMP280;52034;51.926;6.320;2023-09-07T04:54:31;101949.34;;;18.05
58102;BMP280;52034;51.926;6.320;2023-09-07T04:55:37;101953.56;;;18.04
58102;BMP280;52034;51.926;6.320;2023-09-07T04:56:37;101955.03;;;18.05
58102;BMP280;52034;51.926;6.320;2023-09-07T04:57:37;101957.97;;;18.09
58102;BMP280;52034;51.926;6.320;2023-09-07T04:58:38;101960.06;;;18.09
58102;BMP280;52034;51.926;6.320;2023-09-07T04:59:38;101958.69;;;18.10
58102;BMP280;52034;51.926;6.320;2023-09-07T05:00:39;101957.28;;;18.11
58102;BMP280;52034;51.926;6.320;2023-09-07T05:01:39;101958.06;;;18.13
58102;BMP280;52034;51.926;6.320;2023-09-07T05:02:39;101948.09;;;18.14
58102;BMP280;52034;51.926;6.320;2023-09-07T05:03:42;101954.50;;;18.13
58102;BMP280;52034;51.926;6.320;2023-09-07T05:04:44;101952.50;;;18.19
58102;BMP280;52034;51.926;6.320;2023-09-07T05:05:45;101945.41;;;18.20
58102;BMP280;52034;51.926;6.320;2023-09-07T05:06:50;101953.25;;;18.20
58102;BMP280;52034;51.926;6.320;2023-09-07T05:07:51;101957.66;;;18.27
58102;BMP280;52034;51.926;6.320;2023-09-07T05:08:51;101958.34;;;18.27
58102;BMP280;52034;51.926;6.320;2023-09-07T05:09:51;101956.97;;;18.28
58102;BMP280;52034;51.926;6.320;2023-09-07T05:10:56;101950.63;;;18.30
58102;BMP280;52034;51.926;6.320;2023-09-07T05:11:57;101953.41;;;18.28
58102;BMP280;52034;51.926;6.320;2023-09-07T05:12:57;101963.38;;;18.29
58102;BMP280;52034;51.926;6.320;2023-09-07T05:13:57;101964.84;;;18.30
58102;BMP280;52034;51.926;6.320;2023-09-07T05:14:58;101955.63;;;18.31
58102;BMP280;52034;51.926;6.320;2023-09-07T05:16:00;101969.28;;;18.39
58102;BMP280;52034;51.926;6.320;2023-09-07T05:17:01;101969.28;;;18.39
58102;BMP280;52034;51.926;6.320;2023-09-07T05:18:02;101969.44;;;18.45
58102;BMP280;52034;51.926;6.320;2023-09-07T05:19:02;101978.03;;;18.49
58102;BMP280;52034;51.926;6.320;2023-09-07T05:20:03;101971.78;;;18.54
58102;BMP280;52034;51.926;6.320;2023-09-07T05:21:12;101979.09;;;18.65
58102;BMP280;52034;51.926;6.320;2023-09-07T05:22:12;101974.97;;;18.70
58102;BMP280;52034;51.926;6.320;2023-09-07T05:23:13;101979.97;;;18.72
58102;BMP280;52034;51.926;6.320;2023-09-07T05:24:15;101979.44;;;18.81
58102;BMP280;52034;51.926;6.320;2023-09-07T05:25:16;101987.34;;;18.85
58102;BMP280;52034;51.926;6.320;2023-09-07T05:26:23;101981.75;;;18.91
58102;BMP280;52034;51.926;6.320;2023-09-07T05:27:25;101975.38;;;18.92
58102;BMP280;52034;51.926;6.320;2023-09-07T05:28:25;101975.38;;;18.92
58102;BMP280;52034;51.926;6.320;2023-09-07T05:29:28;101971.16;;;18.95
58102;BMP280;52034;51.926;6.320;2023-09-07T05:30:28;101983.34;;;19.00
58102;BMP280;52034;51.926;6.320;2023-09-07T05:31:28;101982.00;;;19.03
58102;BMP280;52034;51.926;6.320;2023-09-07T05:32:29;101983.34;;;19.00
58102;BMP280;52034;51.926;6.320;2023-09-07T05:33:29;101979.84;;;19.01
58102;BMP280;52034;51.926;6.320;2023-09-07T05:34:29;101979.16;;;19.03
58102;BMP280;52034;51.926;6.320;2023-09-07T05:35:30;101987.06;;;19.06
58102;BMP280;52034;51.926;6.320;2023-09-07T05:36:32;101982.09;;;19.07
58102;BMP280;52034;51.926;6.320;2023-09-07T05:37:33;101984.28;;;19.10
58102;BMP280;52034;51.926;6.320;2023-09-07T05:38:33;101984.34;;;19.14
58102;BMP280;52034;51.926;6.320;2023-09-07T05:39:33;101988.00;;;19.19
58102;BMP280;52034;51.926;6.320;2023-09-07T05:40:35;101978.72;;;19.18
58102;BMP280;52034;51.926;6.320;2023-09-07T05:41:36;101986.03;;;19.27
58102;BMP280;52034;51.926;6.320;2023-09-07T05:42:36;101984.03;;;19.34
58102;BMP280;52034;51.926;6.320;2023-09-07T05:43:36;101988.34;;;19.39
58102;BMP280;52034;51.926;6.320;2023-09-07T05:44:37;101985.50;;;19.39
58102;BMP280;52034;51.926;6.320;2023-09-07T05:45:39;101990.59;;;19.44
58102;BMP280;52034;51.926;6.320;2023-09-07T05:46:41;101982.91;;;19.51